Aviation Digital Data Service (ADDS)

Output produced by TAFs form (0709 UTC 26 March 2017)
found at http://aviationweather.gov/adds/tafs/
 
KMAF 260705Z 2607/2706 20011KT P6SM FEW250 
     FM261700 26018G28KT P6SM SCT250 
     FM270200 28008KT P6SM SKC